Time;durP1;ratioP1;P1;durP2;ratioP2;P2;SDS_P1;SDS_P2;PMS_P1;PMS_P2;Temp;Humidity;BMP_temperature;BMP_pressure;BME280_temperature;BME280_humidity;BME280_pressure;Samples;Min_cycle;Max_cycle;Signal;HPM_P1;HPM_P2
2021/11/10 00:02:11;;;;;;;25.88;15.13;;;;;;;2.85;100.00;102093.75;5005171;28;20128;-84
2021/11/10 00:04:37;;;;;;;25.35;14.85;;;;;;;2.85;100.00;102093.75;5002823;28;20505;-84
2021/11/10 00:07:02;;;;;;;30.50;15.50;;;;;;;2.91;100.00;102090.78;4991847;28;20108;-84
2021/11/10 00:09:28;;;;;;;29.33;14.45;;;;;;;2.90;100.00;102083.75;4978542;28;20034;-85
2021/11/10 00:11:54;;;;;;;25.30;13.27;;;;;;;2.88;100.00;102090.94;5004366;28;20054;-85
2021/11/10 00:14:20;;;;;;;20.92;14.25;;;;;;;2.94;100.00;102085.31;4998922;28;20040;-84
2021/11/10 00:16:46;;;;;;;21.52;12.93;;;;;;;3.03;100.00;102080.44;5001723;28;20128;-85
2021/11/10 00:19:11;;;;;;;22.55;13.20;;;;;;;3.06;100.00;102075.81;5008740;28;20399;-85
2021/11/10 00:21:37;;;;;;;19.40;13.38;;;;;;;3.13;100.00;102076.31;4969064;28;20129;-84
2021/11/10 00:24:03;;;;;;;22.15;12.73;;;;;;;3.08;100.00;102081.91;4984474;28;20045;-84
2021/11/10 00:26:29;;;;;;;18.70;12.30;;;;;;;2.99;100.00;102078.88;4994014;28;20034;-84
2021/11/10 00:28:55;;;;;;;25.40;14.95;;;;;;;2.98;100.00;102072.72;4991419;28;20065;-85
2021/11/10 00:31:21;;;;;;;19.90;12.80;;;;;;;2.97;100.00;102068.38;4999258;28;20046;-85
2021/11/10 00:33:47;;;;;;;21.38;13.65;;;;;;;2.88;100.00;102075.03;4988109;28;20457;-85
2021/11/10 00:36:14;;;;;;;20.35;12.48;;;;;;;2.81;100.00;102076.28;5001558;28;20065;-85
2021/11/10 00:38:40;;;;;;;26.48;14.27;;;;;;;2.74;100.00;102069.63;4987521;28;20042;-84
2021/11/10 00:41:06;;;;;;;23.15;14.23;;;;;;;2.81;100.00;102067.47;4986681;28;20460;-85
2021/11/10 00:43:32;;;;;;;19.92;13.32;;;;;;;2.77;100.00;102061.50;4968011;28;20050;-84
2021/11/10 00:45:58;;;;;;;20.38;14.80;;;;;;;2.69;100.00;102059.25;4991658;28;20080;-84
2021/11/10 00:48:23;;;;;;;23.08;13.15;;;;;;;2.75;100.00;102060.72;5002789;28;20072;-84
2021/11/10 00:50:49;;;;;;;24.98;12.75;;;;;;;2.69;100.00;102053.09;5002096;28;20112;-84
2021/11/10 00:53:15;;;;;;;21.92;13.63;;;;;;;2.68;100.00;102054.03;4967451;28;20041;-84
2021/11/10 00:55:41;;;;;;;22.95;14.50;;;;;;;2.69;100.00;102055.75;4993299;28;20060;-84
2021/11/10 00:58:08;;;;;;;22.58;13.55;;;;;;;2.70;100.00;102041.53;4966669;28;20122;-84
2021/11/10 01:00:34;;;;;;;23.38;14.35;;;;;;;2.64;100.00;102041.88;4980725;28;20035;-85
2021/11/10 01:02:59;;;;;;;26.73;14.48;;;;;;;2.59;100.00;102042.16;4985773;28;20514;-84
2021/11/10 01:05:26;;;;;;;22.15;14.30;;;;;;;2.60;100.00;102037.69;5003107;28;20044;-84
2021/11/10 01:07:52;;;;;;;25.38;14.50;;;;;;;2.64;100.00;102034.78;5002510;28;20084;-84
2021/11/10 01:10:18;;;;;;;25.92;14.50;;;;;;;2.64;100.00;102031.28;4980980;28;20038;-85
2021/11/10 01:12:44;;;;;;;26.25;14.32;;;;;;;2.59;100.00;102028.00;5004155;28;20049;-84
2021/11/10 01:15:11;;;;;;;23.27;15.20;;;;;;;2.57;100.00;102035.22;5001279;28;20616;-86
2021/11/10 01:17:38;;;;;;;24.67;13.65;;;;;;;2.57;100.00;102035.22;4999003;28;20056;-85
2021/11/10 01:20:05;;;;;;;24.00;14.63;;;;;;;2.49;100.00;102040.91;4978481;28;20414;-85
2021/11/10 01:22:31;;;;;;;23.83;14.27;;;;;;;2.39;100.00;102037.91;4968923;28;20380;-84
2021/11/10 01:24:57;;;;;;;27.35;16.15;;;;;;;2.41;100.00;102040.47;4963622;28;20053;-85
2021/11/10 01:27:22;;;;;;;25.15;14.88;;;;;;;2.31;100.00;102044.53;4989085;28;20042;-84
2021/11/10 01:29:47;;;;;;;25.55;15.27;;;;;;;2.32;100.00;102038.28;4987564;28;20462;-84
2021/11/10 01:32:14;;;;;;;21.45;14.65;;;;;;;2.27;100.00;102030.56;4985408;28;21337;-84
2021/11/10 01:34:39;;;;;;;27.02;16.23;;;;;;;2.24;100.00;102028.97;4984736;28;20034;-85
2021/11/10 01:37:05;;;;;;;27.48;17.88;;;;;;;2.25;100.00;102032.47;4980196;28;20046;-84
2021/11/10 01:39:31;;;;;;;29.98;14.95;;;;;;;2.22;100.00;102035.28;4985116;28;20041;-84
2021/11/10 01:42:02;;;;;;;25.67;16.50;;;;;;;2.24;100.00;102030.75;4984562;28;20546;-84
2021/11/10 01:44:29;;;;;;;30.33;16.25;;;;;;;2.25;100.00;102017.44;4963163;28;20038;-85
2021/11/10 01:46:57;;;;;;;27.48;16.23;;;;;;;2.18;100.00;102021.31;5005363;28;20552;-85
2021/11/10 01:49:23;;;;;;;26.75;16.00;;;;;;;2.21;100.00;102023.81;4965557;28;20088;-85
2021/11/10 01:51:53;;;;;;;24.50;14.68;;;;;;;2.17;100.00;102013.47;5006493;28;20425;-84
2021/11/10 01:54:21;;;;;;;27.08;18.05;;;;;;;2.15;100.00;102012.69;4989896;28;20509;-85
2021/11/10 01:56:48;;;;;;;27.98;15.48;;;;;;;2.13;100.00;102014.56;5004815;28;20104;-84
2021/11/10 01:59:30;;;;;;;26.48;16.23;;;;;;;2.14;100.00;102016.28;4984180;28;20065;-84
2021/11/10 02:01:58;;;;;;;22.98;14.10;;;;;;;2.09;100.00;102013.00;4952595;28;20529;-85
2021/11/10 02:04:25;;;;;;;30.17;16.73;;;;;;;2.09;100.00;102002.41;4989210;28;20053;-84
2021/11/10 02:06:53;;;;;;;27.30;19.02;;;;;;;2.08;100.00;101998.06;4987316;28;20085;-84
2021/11/10 02:09:20;;;;;;;25.55;17.60;;;;;;;2.06;100.00;101994.63;5006417;28;20554;-84
2021/11/10 02:11:46;;;;;;;31.80;19.13;;;;;;;2.03;100.00;101990.34;4983659;28;20056;-85
2021/11/10 02:14:11;;;;;;;25.33;17.35;;;;;;;2.08;100.00;101990.13;5003494;28;20038;-85
2021/11/10 02:16:38;;;;;;;24.23;16.85;;;;;;;2.05;100.00;101985.84;4992512;28;20049;-85
2021/11/10 02:19:07;;;;;;;28.75;16.92;;;;;;;2.03;100.00;101983.25;4982925;28;20050;-84
2021/11/10 02:21:35;;;;;;;27.63;15.50;;;;;;;2.02;100.00;101986.00;5004664;28;20117;-84
2021/11/10 02:24:00;;;;;;;27.95;16.75;;;;;;;1.97;100.00;101994.19;4991156;28;20050;-84
2021/11/10 02:26:26;;;;;;;30.27;18.27;;;;;;;1.98;100.00;101985.28;4973329;28;20045;-84
2021/11/10 02:28:52;;;;;;;24.25;16.48;;;;;;;1.94;100.00;101974.94;4986995;28;20042;-84
2021/11/10 02:31:18;;;;;;;28.98;18.73;;;;;;;2.00;100.00;101977.28;4985464;28;20088;-85
2021/11/10 02:33:44;;;;;;;27.02;17.02;;;;;;;1.98;100.00;101976.50;4985026;28;20478;-83
2021/11/10 02:36:09;;;;;;;25.80;17.55;;;;;;;1.98;100.00;101980.00;5009868;28;20049;-84
2021/11/10 02:38:35;;;;;;;24.88;17.35;;;;;;;2.01;100.00;101978.97;4980928;28;20054;-85
2021/11/10 02:41:02;;;;;;;27.90;17.42;;;;;;;1.95;100.00;101974.84;5007551;28;20042;-84
2021/11/10 02:43:28;;;;;;;28.55;19.10;;;;;;;1.98;100.00;101985.28;5005400;28;20041;-84
2021/11/10 02:45:56;;;;;;;30.40;18.73;;;;;;;1.99;100.00;101981.72;4981507;28;20511;-84
2021/11/10 02:48:22;;;;;;;28.45;16.50;;;;;;;1.96;100.00;101981.88;5008047;28;20479;-84
2021/11/10 02:50:48;;;;;;;28.08;17.15;;;;;;;1.86;100.00;101975.34;4962222;28;20056;-84
2021/11/10 02:53:14;;;;;;;29.35;18.73;;;;;;;1.99;100.00;101973.78;4984387;28;20116;-84
2021/11/10 02:55:41;;;;;;;24.23;16.52;;;;;;;1.95;100.00;101977.50;4993609;28;20117;-84
2021/11/10 02:58:07;;;;;;;27.70;15.60;;;;;;;1.90;100.00;101976.91;4984679;28;20061;-83
2021/11/10 03:00:33;;;;;;;30.60;17.33;;;;;;;1.90;100.00;101981.31;5003245;28;20037;-84
2021/11/10 03:03:02;;;;;;;28.05;17.23;;;;;;;1.95;100.00;101982.78;5006270;28;20038;-83
2021/11/10 03:05:28;;;;;;;28.25;17.30;;;;;;;1.92;100.00;101988.25;4986959;28;20182;-84
2021/11/10 03:07:54;;;;;;;27.42;16.55;;;;;;;1.93;100.00;101992.63;4967890;28;20042;-84
2021/11/10 03:10:20;;;;;;;25.38;17.65;;;;;;;1.95;100.00;101990.75;4998376;28;20441;-83
2021/11/10 03:12:46;;;;;;;26.17;16.67;;;;;;;1.93;100.00;101978.53;4985404;28;20038;-83
2021/11/10 03:15:11;;;;;;;27.90;17.70;;;;;;;1.84;100.00;101987.78;4980265;28;20046;-84
2021/11/10 03:17:37;;;;;;;26.13;17.85;;;;;;;1.84;100.00;101971.91;4988206;28;20045;-84
2021/11/10 03:20:06;;;;;;;25.15;16.40;;;;;;;1.85;100.00;101973.63;5003568;28;20079;-84
2021/11/10 03:22:31;;;;;;;26.85;16.60;;;;;;;1.88;100.00;101977.91;5001699;28;20037;-84
2021/11/10 03:24:57;;;;;;;29.92;16.42;;;;;;;1.80;100.00;101975.66;4967374;28;20092;-85
2021/11/10 03:27:22;;;;;;;27.50;17.67;;;;;;;1.80;100.00;101970.38;5001131;28;20042;-85
2021/11/10 03:29:51;;;;;;;28.42;16.98;;;;;;;1.82;100.00;101968.50;4977180;28;20148;-84
2021/11/10 03:32:18;;;;;;;30.38;17.55;;;;;;;1.74;100.00;101965.38;4979013;28;20053;-84
2021/11/10 03:34:44;;;;;;;28.00;16.63;;;;;;;1.71;100.00;101976.13;4986893;28;20039;-83
2021/11/10 03:37:10;;;;;;;27.95;19.27;;;;;;;1.80;100.00;101980.94;4981854;28;20042;-84
2021/11/10 03:39:35;;;;;;;26.23;17.70;;;;;;;1.76;100.00;101974.97;4950282;28;20112;-84
2021/11/10 03:42:01;;;;;;;27.80;18.85;;;;;;;1.75;100.00;101973.22;4960464;28;20339;-84
2021/11/10 03:44:26;;;;;;;28.30;18.17;;;;;;;1.71;100.00;101971.69;4957297;28;20117;-84
2021/11/10 03:46:52;;;;;;;26.63;18.08;;;;;;;1.78;100.00;101967.81;4962599;28;20049;-84
2021/11/10 03:49:19;;;;;;;26.27;16.95;;;;;;;1.71;100.00;101968.19;4980359;28;20049;-84
2021/11/10 03:51:46;;;;;;;26.55;17.25;;;;;;;1.73;100.00;101972.47;4979024;28;20043;-84
2021/11/10 03:54:13;;;;;;;27.42;17.23;;;;;;;1.66;100.00;101978.16;4982517;28;20031;-84
2021/11/10 03:56:38;;;;;;;25.92;17.10;;;;;;;1.73;100.00;101974.28;4971029;28;20038;-84
2021/11/10 03:59:04;;;;;;;25.33;16.95;;;;;;;1.68;100.00;101976.28;4968394;28;20047;-84
2021/11/10 04:01:30;;;;;;;27.15;16.83;;;;;;;1.69;100.00;101989.44;4982930;28;20483;-84
2021/11/10 04:03:56;;;;;;;27.63;16.30;;;;;;;1.70;100.00;101983.22;4981279;28;20069;-84
2021/11/10 04:06:21;;;;;;;28.42;17.80;;;;;;;1.69;100.00;101980.63;4968598;28;20038;-84
2021/11/10 04:08:47;;;;;;;22.42;15.73;;;;;;;1.63;100.00;101983.59;4960175;28;20055;-84
2021/11/10 04:11:12;;;;;;;31.52;19.98;;;;;;;1.63;100.00;101986.25;4973173;28;20034;-84
2021/11/10 04:13:38;;;;;;;24.55;16.45;;;;;;;1.64;100.00;101991.47;4981121;28;20403;-84
2021/11/10 04:16:04;;;;;;;26.08;16.83;;;;;;;1.64;100.00;101980.00;4948798;28;20046;-84
2021/11/10 04:18:33;;;;;;;27.25;18.20;;;;;;;1.60;100.00;101983.75;4966101;28;20061;-84
2021/11/10 04:21:00;;;;;;;26.83;17.70;;;;;;;1.65;100.00;101979.94;4979804;28;20339;-85
2021/11/10 04:23:28;;;;;;;27.15;16.42;;;;;;;1.61;100.00;101988.09;4981283;28;20080;-84
2021/11/10 04:25:53;;;;;;;29.55;16.85;;;;;;;1.54;100.00;101992.84;4961553;28;20049;-85
2021/11/10 04:28:18;;;;;;;31.13;17.27;;;;;;;1.58;100.00;101989.13;4979216;28;20035;-84
2021/11/10 04:30:44;;;;;;;27.00;18.63;;;;;;;1.64;100.00;101995.88;4933719;28;20046;-84
2021/11/10 04:33:09;;;;;;;30.40;17.80;;;;;;;1.62;100.00;101992.47;4985139;28;20034;-85
2021/11/10 04:35:38;;;;;;;26.17;17.10;;;;;;;1.58;100.00;101991.75;4947775;28;20533;-85
2021/11/10 04:38:03;;;;;;;26.37;17.07;;;;;;;1.60;100.00;101989.06;4991784;28;20073;-85
2021/11/10 04:40:29;;;;;;;27.45;17.05;;;;;;;1.62;100.00;102008.38;4966825;28;20397;-85
2021/11/10 04:42:55;;;;;;;25.15;17.63;;;;;;;1.59;100.00;101998.78;4967141;28;20106;-85
2021/11/10 04:45:31;;;;;;;26.58;15.65;;;;;;;1.54;100.00;101996.34;4948180;28;20129;-84
2021/11/10 04:47:56;;;;;;;26.80;16.30;;;;;;;1.50;100.00;102000.09;4958126;28;20105;-84
2021/11/10 04:50:22;;;;;;;27.92;16.52;;;;;;;1.53;100.00;101994.66;4966642;28;20046;-85
2021/11/10 04:52:47;;;;;;;27.98;17.67;;;;;;;1.50;100.00;101994.81;4971367;28;20042;-85
2021/11/10 04:55:14;;;;;;;24.77;16.75;;;;;;;1.51;100.00;101995.66;4960078;28;20050;-84
2021/11/10 04:57:39;;;;;;;27.63;17.20;;;;;;;1.56;100.00;101999.78;4977448;28;20134;-85
2021/11/10 05:00:07;;;;;;;28.00;17.83;;;;;;;1.52;100.00;102006.16;4968902;28;20050;-84
2021/11/10 05:02:32;;;;;;;27.40;17.80;;;;;;;1.53;100.00;101997.31;4983938;28;20042;-85
2021/11/10 05:04:57;;;;;;;26.30;16.67;;;;;;;1.49;100.00;101992.22;4954373;28;20069;-84
2021/11/10 05:07:23;;;;;;;28.42;17.23;;;;;;;1.47;100.00;101999.41;4969701;28;20081;-84
2021/11/10 05:09:49;;;;;;;27.67;19.30;;;;;;;1.51;100.00;101995.66;4987356;28;20042;-85
2021/11/10 05:12:16;;;;;;;25.58;17.27;;;;;;;1.46;100.00;102006.47;4951461;28;20038;-84
2021/11/10 05:14:41;;;;;;;27.35;16.42;;;;;;;1.38;100.00;102003.31;4965551;28;20040;-85
2021/11/10 05:17:07;;;;;;;28.75;17.55;;;;;;;1.38;100.00;102002.47;4981600;28;20144;-85
2021/11/10 05:19:32;;;;;;;27.92;16.90;;;;;;;1.34;100.00;102004.41;4966937;28;20038;-83
2021/11/10 05:21:58;;;;;;;29.10;18.40;;;;;;;1.45;100.00;101995.97;4975045;28;20053;-85
2021/11/10 05:24:26;;;;;;;29.13;17.70;;;;;;;1.47;100.00;101996.75;4968619;28;20065;-84
2021/11/10 05:26:51;;;;;;;28.92;18.33;;;;;;;1.47;100.00;101994.97;4957867;28;20550;-84
2021/11/10 05:29:17;;;;;;;27.98;17.98;;;;;;;1.46;100.00;101993.22;4972167;28;20073;-85
2021/11/10 05:31:43;;;;;;;31.05;18.02;;;;;;;1.48;100.00;101996.66;4951036;28;20034;-85
2021/11/10 05:34:08;;;;;;;28.33;17.23;;;;;;;1.46;100.00;101997.66;4991998;28;20045;-86
2021/11/10 05:36:34;;;;;;;27.42;17.08;;;;;;;1.45;100.00;101999.47;4962408;28;20042;-84
2021/11/10 05:38:59;;;;;;;28.88;16.13;;;;;;;1.39;100.00;102005.06;4987592;28;20038;-85
2021/11/10 05:41:24;;;;;;;30.58;17.45;;;;;;;1.43;100.00;102009.25;4972166;28;20037;-85
2021/11/10 05:43:50;;;;;;;30.63;17.92;;;;;;;1.50;100.00;102013.31;4989645;28;20049;-84
2021/11/10 05:46:15;;;;;;;26.58;16.48;;;;;;;1.52;100.00;102006.16;4974913;28;20219;-85
2021/11/10 05:48:42;;;;;;;31.50;18.60;;;;;;;1.55;100.00;101998.09;4995529;28;20039;-84
2021/11/10 05:51:07;;;;;;;29.17;19.23;;;;;;;1.69;100.00;101993.88;4991714;28;20041;-85
2021/11/10 05:53:34;;;;;;;34.40;19.92;;;;;;;1.85;100.00;101994.81;5004171;28;20049;-85
2021/11/10 05:56:00;;;;;;;29.92;19.17;;;;;;;1.97;100.00;101982.72;5008741;28;20042;-85
2021/11/10 05:58:32;;;;;;;29.50;16.17;;;;;;;1.82;100.00;101989.69;4971661;28;20061;-85
2021/11/10 06:00:59;;;;;;;30.98;17.15;;;;;;;1.87;100.00;101981.47;4988928;28;20462;-84
2021/11/10 06:03:25;;;;;;;25.63;16.10;;;;;;;1.78;100.00;101978.41;4972756;28;20049;-84
2021/11/10 06:05:51;;;;;;;30.73;17.58;;;;;;;1.84;100.00;101987.78;5000785;28;20399;-85
2021/11/10 06:08:16;;;;;;;25.20;17.00;;;;;;;1.76;100.00;101990.00;5006629;28;20049;-85
2021/11/10 06:10:42;;;;;;;29.30;16.45;;;;;;;1.78;100.00;101998.69;5005448;28;20311;-85
2021/11/10 06:13:07;;;;;;;28.13;15.85;;;;;;;1.75;100.00;101989.13;4970855;28;20482;-85
2021/11/10 06:15:33;;;;;;;25.30;17.02;;;;;;;1.83;100.00;101988.72;4982818;28;20092;-85
2021/11/10 06:17:58;;;;;;;30.40;16.25;;;;;;;1.80;100.00;101976.50;5004887;28;20406;-85
2021/11/10 06:20:24;;;;;;;31.33;17.80;;;;;;;1.91;100.00;101978.59;4988856;28;20049;-85
2021/11/10 06:22:49;;;;;;;24.85;15.30;;;;;;;1.80;100.00;101987.09;4984041;28;20038;-85
2021/11/10 06:25:15;;;;;;;26.02;16.63;;;;;;;1.69;100.00;101985.94;4992425;28;20045;-85
2021/11/10 06:27:40;;;;;;;25.65;15.27;;;;;;;1.60;100.00;101994.34;4984722;28;20042;-85
2021/11/10 06:30:07;;;;;;;26.33;17.38;;;;;;;1.54;100.00;101993.72;4989615;28;20391;-84
2021/11/10 06:32:33;;;;;;;29.00;19.25;;;;;;;1.56;100.00;101994.50;4989353;28;20037;-84
2021/11/10 06:34:58;;;;;;;33.90;20.83;;;;;;;1.56;100.00;101998.94;5004617;28;20046;-85
2021/11/10 06:37:23;;;;;;;31.85;19.33;;;;;;;1.65;100.00;101982.59;4984534;28;20505;-84
2021/11/10 06:39:49;;;;;;;34.70;19.75;;;;;;;1.73;100.00;101985.72;4972032;28;20065;-85
2021/11/10 06:42:14;;;;;;;31.50;16.92;;;;;;;1.71;100.00;101986.72;4986287;28;20058;-85
2021/11/10 06:44:40;;;;;;;30.30;15.93;;;;;;;1.68;100.00;101994.81;5006182;28;20164;-84
2021/11/10 06:47:05;;;;;;;41.05;22.98;;;;;;;1.84;100.00;101981.63;5006681;28;20785;-85
2021/11/10 06:49:31;;;;;;;36.67;19.23;;;;;;;1.87;100.00;101982.38;4997276;28;20038;-85
2021/11/10 06:51:57;;;;;;;33.17;18.23;;;;;;;1.83;100.00;101985.25;4992142;28;20137;-84
2021/11/10 06:54:23;;;;;;;30.20;16.20;;;;;;;1.74;100.00;101984.75;4967509;28;20049;-86
2021/11/10 06:56:49;;;;;;;30.20;17.55;;;;;;;1.69;100.00;102002.66;5002649;28;20054;-85
2021/11/10 06:59:16;;;;;;;32.47;17.52;;;;;;;1.65;100.00;102013.50;4982810;28;20046;-85
2021/11/10 07:01:41;;;;;;;34.10;17.30;;;;;;;1.71;100.00;102005.25;4976707;28;20101;-85
2021/11/10 07:04:07;;;;;;;37.30;19.75;;;;;;;1.78;100.00;101990.75;4973712;28;20045;-85
2021/11/10 07:06:32;;;;;;;31.45;18.90;;;;;;;1.86;100.00;101993.88;4984329;28;20120;-85
2021/11/10 07:08:57;;;;;;;34.40;20.10;;;;;;;1.90;100.00;101998.09;4993025;28;20038;-85
2021/11/10 07:11:23;;;;;;;31.65;18.35;;;;;;;1.90;100.00;102013.09;4987286;28;20425;-85
2021/11/10 07:13:48;;;;;;;34.67;18.23;;;;;;;1.92;100.00;102001.50;4980575;28;20042;-85
2021/11/10 07:16:15;;;;;;;35.80;19.17;;;;;;;2.03;100.00;102009.75;5004563;28;20474;-86
2021/11/10 07:18:40;;;;;;;36.15;19.02;;;;;;;2.13;100.00;102009.25;5002357;28;20061;-85
2021/11/10 07:21:07;;;;;;;37.30;19.80;;;;;;;2.15;100.00;102008.25;5002833;28;20117;-85
2021/11/10 07:23:33;;;;;;;32.42;19.17;;;;;;;2.19;100.00;102012.47;4980615;28;20046;-85
2021/11/10 07:25:58;;;;;;;33.40;19.85;;;;;;;2.26;100.00;102005.03;5003371;28;20041;-85
2021/11/10 07:28:24;;;;;;;31.17;18.17;;;;;;;2.28;100.00;102015.56;4982101;28;20039;-86
2021/11/10 07:30:49;;;;;;;30.02;17.45;;;;;;;2.35;100.00;102015.16;4971152;28;20046;-85
2021/11/10 07:33:14;;;;;;;36.25;19.40;;;;;;;2.43;100.00;102014.75;4984713;28;20038;-85
2021/11/10 07:35:40;;;;;;;31.25;18.40;;;;;;;2.47;100.00;102006.56;4988983;28;20372;-85
2021/11/10 07:38:06;;;;;;;31.95;20.30;;;;;;;2.50;100.00;101997.56;5005039;28;20453;-86
2021/11/10 07:40:32;;;;;;;37.28;20.85;;;;;;;2.55;100.00;101995.53;4976933;28;20038;-86
2021/11/10 07:42:57;;;;;;;30.80;18.33;;;;;;;2.61;100.00;101994.34;4981460;28;20490;-86
2021/11/10 07:45:31;;;;;;;29.00;17.77;;;;;;;2.68;100.00;101991.28;4954122;28;20046;-85
2021/11/10 07:47:59;;;;;;;30.80;19.13;;;;;;;2.73;100.00;101993.66;4998712;28;20048;-85
2021/11/10 07:50:25;;;;;;;31.25;16.50;;;;;;;2.77;100.00;101989.06;4979811;28;20030;-85
2021/11/10 07:52:51;;;;;;;28.65;17.55;;;;;;;2.80;100.00;101992.41;4982438;28;20399;-85
2021/11/10 07:55:18;;;;;;;31.15;16.83;;;;;;;2.89;100.00;102002.50;4982208;28;20038;-86
2021/11/10 07:57:43;;;;;;;25.13;15.02;;;;;;;2.92;100.00;102009.41;4982014;28;20096;-85
2021/11/10 08:00:15;;;;;;;27.10;16.50;;;;;;;2.97;100.00;102006.53;4984638;28;20042;-85
2021/11/10 08:02:41;;;;;;;29.95;16.55;;;;;;;3.03;100.00;102001.72;4964454;28;20039;-85
2021/11/10 08:05:08;;;;;;;28.80;15.30;;;;;;;3.10;100.00;101994.28;4964176;28;20035;-85
2021/11/10 08:07:34;;;;;;;30.92;17.70;;;;;;;3.16;100.00;101984.19;4979941;28;20046;-85
2021/11/10 08:09:59;;;;;;;26.83;16.55;;;;;;;3.24;100.00;101983.72;4982275;28;20233;-85
2021/11/10 08:12:26;;;;;;;28.63;15.15;;;;;;;3.29;100.00;101992.28;4947688;28;20038;-85
2021/11/10 08:14:51;;;;;;;25.08;15.20;;;;;;;3.35;100.00;101999.03;4972191;28;20104;-85
2021/11/10 08:17:17;;;;;;;29.98;15.30;;;;;;;3.41;100.00;102008.44;4967831;28;20085;-84
2021/11/10 08:19:42;;;;;;;24.77;14.63;;;;;;;3.50;100.00;102008.75;4979690;28;20043;-85
2021/11/10 08:22:08;;;;;;;21.73;13.57;;;;;;;3.58;100.00;102005.69;4946267;28;20042;-85
2021/11/10 08:24:33;;;;;;;25.25;14.77;;;;;;;3.63;100.00;102011.59;4967721;28;20053;-85
2021/11/10 08:26:59;;;;;;;24.27;16.27;;;;;;;3.69;100.00;102008.56;4947447;28;20507;-85
2021/11/10 08:29:24;;;;;;;26.33;13.75;;;;;;;3.76;100.00;102003.75;4980572;28;20438;-85
2021/11/10 08:31:51;;;;;;;23.98;13.93;;;;;;;3.83;100.00;102005.94;4981567;28;20046;-85
2021/11/10 08:34:17;;;;;;;24.92;14.63;;;;;;;3.90;100.00;102000.28;4965934;28;20491;-85
2021/11/10 08:36:42;;;;;;;23.60;12.30;;;;;;;3.97;100.00;101993.63;4970875;28;20054;-84
2021/11/10 08:39:08;;;;;;;23.23;14.07;;;;;;;4.05;100.00;101992.22;4981843;28;20058;-85
2021/11/10 08:41:33;;;;;;;25.60;14.32;;;;;;;4.14;100.00;101995.28;4985732;28;20145;-85
2021/11/10 08:43:59;;;;;;;24.80;14.55;;;;;;;4.21;100.00;102000.13;4969556;28;20065;-85
2021/11/10 08:46:26;;;;;;;23.35;13.82;;;;;;;4.31;100.00;102003.06;4982449;28;20684;-84
2021/11/10 08:48:53;;;;;;;23.92;15.57;;;;;;;4.38;100.00;102008.88;4963449;28;20396;-85
2021/11/10 08:51:20;;;;;;;20.10;14.93;;;;;;;4.47;100.00;102026.91;4977979;28;20043;-84
2021/11/10 08:53:46;;;;;;;22.95;12.73;;;;;;;4.59;100.00;102020.81;4962391;28;20042;-85
2021/11/10 08:56:12;;;;;;;23.15;13.63;;;;;;;4.70;100.00;102017.50;4968139;28;20043;-85
2021/11/10 08:58:38;;;;;;;22.20;12.70;;;;;;;4.79;100.00;102013.41;4985069;28;20046;-86
2021/11/10 09:01:03;;;;;;;19.40;12.15;;;;;;;4.86;100.00;102004.06;4978328;28;20518;-85
2021/11/10 09:03:29;;;;;;;20.40;11.68;;;;;;;4.96;100.00;101994.56;4971491;28;20068;-85
2021/11/10 09:05:54;;;;;;;20.20;13.02;;;;;;;5.07;99.68;101996.56;4987635;28;20038;-85
2021/11/10 09:08:29;;;;;;;19.33;12.85;;;;;;;5.19;100.00;101995.75;4953490;28;20467;-85
2021/11/10 09:10:55;;;;;;;19.17;12.35;;;;;;;5.26;99.09;102004.16;4976929;28;20046;-85
2021/11/10 09:13:21;;;;;;;21.08;12.95;;;;;;;5.36;98.78;102013.28;4998908;28;20511;-85
2021/11/10 09:15:46;;;;;;;21.08;13.63;;;;;;;5.49;98.17;102014.16;4982371;28;20518;-85
2021/11/10 09:18:12;;;;;;;21.73;12.48;;;;;;;5.62;98.42;102015.06;4955295;28;20129;-84
2021/11/10 09:20:42;;;;;;;22.35;11.93;;;;;;;5.78;97.64;102024.69;4970334;28;20125;-85
2021/11/10 09:23:09;;;;;;;22.63;11.07;;;;;;;5.88;96.41;102009.78;4968990;28;20050;-85
2021/11/10 09:25:37;;;;;;;18.75;10.40;;;;;;;5.98;95.74;102010.03;4984898;28;20125;-84
2021/11/10 09:28:05;;;;;;;16.67;11.05;;;;;;;6.05;94.89;102012.19;4960862;28;20043;-85
2021/11/10 09:30:31;;;;;;;21.40;10.95;;;;;;;6.18;94.79;102006.00;4974921;28;20034;-85
2021/11/10 09:32:57;;;;;;;20.65;11.07;;;;;;;6.23;93.91;101999.41;4952733;28;20074;-85
2021/11/10 09:35:24;;;;;;;19.20;11.38;;;;;;;6.38;94.21;102004.63;4966894;28;20038;-85
2021/11/10 09:37:55;;;;;;;19.90;10.48;;;;;;;6.45;92.61;101990.75;4984002;28;20041;-85
2021/11/10 09:40:23;;;;;;;18.45;10.45;;;;;;;6.49;92.43;101994.91;4976653;28;20069;-86
2021/11/10 09:42:49;;;;;;;20.13;12.15;;;;;;;6.55;91.96;101983.81;4982880;28;20057;-85
2021/11/10 09:45:18;;;;;;;22.13;11.02;;;;;;;6.58;91.35;101993.41;4987782;28;20042;-85
2021/11/10 09:47:44;;;;;;;19.65;11.15;;;;;;;6.67;91.16;101986.56;4963513;28;20046;-85
2021/11/10 09:50:13;;;;;;;19.85;10.55;;;;;;;6.75;91.56;101993.06;4949861;28;20085;-85
2021/11/10 09:52:38;;;;;;;21.83;11.85;;;;;;;6.79;90.98;101991.03;4954153;28;20069;-85
2021/11/10 09:55:07;;;;;;;24.05;12.07;;;;;;;6.88;91.77;101992.19;4981810;28;20534;-84
2021/11/10 09:57:34;;;;;;;16.83;11.05;;;;;;;6.97;90.46;101984.34;4969874;28;20041;-84
2021/11/10 10:00:01;;;;;;;19.05;11.88;;;;;;;7.07;90.19;101973.84;4985176;28;20141;-86
2021/11/10 10:02:27;;;;;;;22.38;12.35;;;;;;;7.17;90.16;101976.72;4983663;28;20068;-85
2021/11/10 10:04:53;;;;;;;21.88;11.50;;;;;;;7.24;89.36;101980.63;4985138;28;20038;-86
2021/11/10 10:07:18;;;;;;;17.55;9.82;;;;;;;7.34;89.14;101970.97;4988780;28;20034;-84
2021/11/10 10:09:44;;;;;;;17.40;9.60;;;;;;;7.40;88.72;101973.19;4962671;28;20046;-84
2021/11/10 10:12:09;;;;;;;16.48;9.60;;;;;;;7.52;88.56;101981.25;4962881;28;20054;-85
2021/11/10 10:14:36;;;;;;;18.67;10.52;;;;;;;7.61;88.27;101984.06;4952522;28;20043;-85
2021/11/10 10:17:03;;;;;;;18.65;10.23;;;;;;;7.76;88.34;101990.06;4967308;28;20509;-84
2021/11/10 10:19:40;;;;;;;20.38;10.70;;;;;;;7.81;88.05;101979.03;4983867;28;20042;-86
2021/11/10 10:22:05;;;;;;;21.70;10.02;;;;;;;7.83;86.85;101972.59;4958478;28;20484;-85
2021/11/10 10:24:54;;;;;;;20.25;10.10;;;;;;;7.88;87.53;101974.91;5003238;28;20124;-86
2021/11/10 10:27:32;;;;;;;17.75;9.52;;;;;;;7.93;87.25;101971.88;4986104;28;20117;-86
2021/11/10 10:30:22;;;;;;;22.67;10.10;;;;;;;7.99;87.57;101979.44;4983160;28;20046;-85
2021/11/10 10:33:12;;;;;;;15.85;9.52;;;;;;;8.08;86.52;101992.91;4982514;28;20046;-85
2021/11/10 10:35:52;;;;;;;15.88;9.65;;;;;;;8.09;86.14;101988.44;4964031;28;20042;-85
2021/11/10 10:38:20;;;;;;;17.45;11.10;;;;;;;8.19;87.55;101993.94;4986307;28;20089;-86
2021/11/10 10:40:49;;;;;;;17.02;11.10;;;;;;;8.27;88.04;101988.84;4969265;28;20045;-85
2021/11/10 10:43:16;;;;;;;16.40;10.98;;;;;;;8.32;87.85;101984.81;4947761;28;20035;-85
2021/11/10 10:45:48;;;;;;;20.75;10.95;;;;;;;8.39;87.86;101987.91;4967901;28;20041;-86
2021/11/10 10:48:16;;;;;;;16.27;11.23;;;;;;;8.45;87.96;101986.56;4954286;28;20349;-86
2021/11/10 10:50:57;;;;;;;16.80;9.73;;;;;;;8.53;86.44;101997.50;4951570;28;20133;-85
2021/11/10 10:53:35;;;;;;;19.70;10.70;;;;;;;8.61;87.12;101988.88;4981865;28;20347;-85
2021/11/10 10:56:13;;;;;;;19.02;10.23;;;;;;;8.66;87.36;101979.53;4967480;28;20483;-85
2021/11/10 10:58:40;;;;;;;21.40;11.23;;;;;;;8.70;86.56;101982.78;4987577;28;20053;-86
2021/11/10 11:01:18;;;;;;;16.70;10.40;;;;;;;8.74;87.44;101984.22;4968167;28;20377;-85
2021/11/10 11:04:32;;;;;;;17.65;10.00;;;;;;;8.73;86.84;101988.75;4985283;28;20104;-85
2021/11/10 11:07:05;;;;;;;18.60;10.73;;;;;;;8.71;86.74;101988.00;4984232;28;20069;-85
2021/11/10 11:09:52;;;;;;;18.55;10.68;;;;;;;8.70;87.34;101983.63;4963492;28;20041;-85
2021/11/10 11:12:27;;;;;;;19.10;11.02;;;;;;;8.72;87.53;101981.69;4965707;28;20078;-86